Aérodrome :
LOGIN :

S'inscrire | Disclaimer

   EN    FR    IT 

 










Légende :    VFR   VFR Marginal   IFR   IFR Intensif   IFR Très Intensif
Visi : 
Plafond : 
>= 8 km
>= 3000ft
5 à 8 km
1000 à 3000 ft
1500m à 5 km
500 à 1000 ft
800 à 1500m
200 à 500 ft
< 800m
< 200 ft
Symboles :   Orages  Brouillard  Fortes neiges  Fortes précipitations  Vent > 20 kt
SIGMETs :   Divers  Orages  Givrage  Turbulence  Onde Orograph.  Cendres Volcan.






- Altitude de l'aérodrome : 461 ft
- Code IATA : WIE


ETOU - Wiesbaden Army

DERNIER METAR :
  • 161358Z AUTO 00000KT 9999 -DZ FEW009 FEW015 SCT025 BKN033 OVC043 17/13 A3005 RMK AO2 DZB58 SLP176 $

METARs EXPIRÉS :
  • 161337Z AUTO 34005KT 9999 -RA FEW017 BKN028 OVC035 18/13 A3004 RMK AO2 RAB36 CIG 028V035 SLP173 $
  • 161256Z AUTO 26007KT 9999 FEW028 OVC038 18/12 A3004 RMK AO2 SLP173 T01760118 $
  • 161206Z AUTO 28004KT 9999 BKN030 OVC047 18/11 A3004 RMK AO2 SLP173 $
  • 161156Z AUTO 27006KT 9999 OVC029 17/12 A3004 RMK AO2 DZE1056RAB1056E07 SLP173 P0000 60000 T01740116 10175 20151 58001 $
  • 161127Z AUTO 28006KT 9999 BKN028 OVC035 17/12 A3004 RMK AO2 DZE1056RAB1056E07 SLP173 $
  • 161117Z AUTO 28005KT 9999 SCT025 OVC031 17/12 A3004 RMK AO2 DZE1056RAB1056E07 SLP173 $

TAF TAF ETOU
Valide du 16 à 12h jusqu'au 17 à 18h UTC


161200Z 1612/1718 26010G18KT 9999 -SHRA FEW015 BKN025 610909 QNH3043INS
BECMG 1621/1622 32005KT 9999 NSW FEW012 BKN020 QNH3006INS
BECMG 1705/1706 35005KT 9999 BKN013 QNH3013INS TX20/1712Z TN15/1704Z



MET'MAP, la Météo Aéronautique d'un coup d'oeil ! - Copyright ORBIFLY Décembre 2007 - Disclaimer

ORBIFLY MET'MAP TEAM :

Programmation & Développement : Alexandra Zaïnal
Sur une idée originale de : Baudouin d'Aumeries
Assistance à la programmation : Marc-Olivier Méhu
Soutien technique & logistique : Manuel Goepfert

Contact : metmap@orbifly.com




SOURCES & CREDITS :

   NOAA